Time;durP1;ratioP1;P1;durP2;ratioP2;P2;SDS_P1;SDS_P2;PMS_P1;PMS_P2;Temp;Humidity;BMP_temperature;BMP_pressure;BME280_temperature;BME280_humidity;BME280_pressure;Samples;Min_cycle;Max_cycle;Signal;HPM_P1;HPM_P2
2022/12/17 13:06:11;;;;;;;36.53;25.80;;;9.00;1.00;;;;;;5053535;28;20163;-68
2022/12/17 13:08:38;;;;;;;39.23;26.37;;;9.00;1.00;;;;;;5023927;28;20099;-68
2022/12/17 13:11:35;;;;;;;34.93;25.43;;;8.90;1.00;;;;;;5016876;28;20399;-68
2022/12/17 13:14:10;;;;;;;43.03;29.33;;;9.00;1.00;;;;;;5031345;28;20041;-68
2022/12/17 13:16:43;;;;;;;44.43;28.73;;;9.10;1.00;;;;;;5033298;28;20017;-67
2022/12/17 13:19:30;;;;;;;47.00;30.38;;;9.20;1.00;;;;;;5033133;28;20658;-68
2022/12/17 13:21:56;;;;;;;44.63;28.92;;;9.40;1.00;;;;;;5024733;28;20018;-66
2022/12/17 13:24:26;;;;;;;42.47;28.83;;;9.30;1.00;;;;;;5013272;28;20344;-66
2022/12/17 13:26:52;;;;;;;46.53;29.20;;;9.30;1.00;;;;;;5025069;28;20028;-66
2022/12/17 13:29:31;;;;;;;44.67;29.20;;;9.20;1.00;;;;;;5033081;28;20430;-67
2022/12/17 13:31:59;;;;;;;43.93;28.47;;;9.30;1.00;;;;;;5033054;28;20029;-66
2022/12/17 13:34:49;;;;;;;47.23;30.33;;;9.30;1.00;;;;;;5033096;28;20027;-67
2022/12/17 13:37:41;;;;;;;42.08;28.65;;;9.40;1.00;;;;;;5033217;28;20037;-67
2022/12/17 13:41:02;;;;;;;46.78;29.75;;;9.30;1.00;;;;;;5033164;28;20064;-66
2022/12/17 13:43:33;;;;;;;42.78;27.98;;;9.50;1.00;;;;;;5025645;28;20041;-66
2022/12/17 13:45:59;;;;;;;42.20;27.55;;;9.40;1.00;;;;;;5032657;28;20018;-67
2022/12/17 13:48:27;;;;;;;37.72;25.88;;;9.50;1.00;;;;;;5028258;28;20038;-66
2022/12/17 13:51:03;;;;;;;35.50;24.25;;;9.40;1.00;;;;;;5011253;28;20026;-67
2022/12/17 13:53:32;;;;;;;32.53;23.42;;;9.50;1.00;;;;;;5012853;28;20029;-68
2022/12/17 13:55:59;;;;;;;37.38;24.48;;;9.50;1.00;;;;;;5017391;28;20415;-67
2022/12/17 13:58:32;;;;;;;33.20;24.08;;;9.60;1.00;;;;;;5032450;28;20029;-67
2022/12/17 14:01:09;;;;;;;35.63;25.75;;;9.60;1.00;;;;;;5032572;28;20021;-67
2022/12/17 14:03:35;;;;;;;31.17;23.65;;;9.60;1.00;;;;;;5033035;28;20116;-67
2022/12/17 14:06:03;;;;;;;34.00;24.35;;;9.50;1.00;;;;;;5030988;28;20521;-67
2022/12/17 14:08:31;;;;;;;33.30;24.02;;;9.60;1.00;;;;;;5012624;28;20029;-67
2022/12/17 14:13:44;;;;;;;32.88;24.05;;;9.50;1.00;;;;;;5013236;28;20517;-66
2022/12/17 14:16:18;;;;;;;36.10;25.38;;;9.40;1.00;;;;;;5012471;28;20113;-67
2022/12/17 14:18:53;;;;;;;32.42;23.20;;;9.30;1.00;;;;;;5028129;28;20105;-67
2022/12/17 14:21:31;;;;;;;30.65;22.23;;;9.20;1.00;;;;;;5013284;28;20026;-67
2022/12/17 14:23:57;;;;;;;35.83;24.20;;;9.20;1.00;;;;;;5012405;28;20064;-67
2022/12/17 14:26:23;;;;;;;33.67;21.88;;;9.10;1.00;;;;;;5020049;28;20025;-67
2022/12/17 14:28:53;;;;;;;35.67;23.23;;;9.00;1.00;;;;;;5032054;28;20091;-67
2022/12/17 14:31:30;;;;;;;36.27;23.40;;;9.20;1.00;;;;;;5032333;28;20025;-67
2022/12/17 14:34:09;;;;;;;34.07;23.40;;;9.10;1.00;;;;;;5032459;28;20022;-67
2022/12/17 14:36:41;;;;;;;36.63;23.20;;;9.10;1.00;;;;;;5046183;28;20108;-67
2022/12/17 14:39:19;;;;;;;33.33;22.73;;;9.10;1.00;;;;;;5032227;28;20033;-66
2022/12/17 14:44:30;;;;;;;37.85;25.20;;;9.10;1.00;;;;;;5025890;28;20076;-66
2022/12/17 14:47:16;;;;;;;41.00;26.30;;;9.10;1.00;;;;;;5012315;28;20022;-66
2022/12/17 14:49:54;;;;;;;45.37;28.57;;;9.10;1.00;;;;;;5012184;28;20042;-66
2022/12/17 14:52:37;;;;;;;47.93;26.13;;;9.10;1.00;;;;;;5023245;28;20037;-66
2022/12/17 14:55:21;;;;;;;45.58;27.77;;;9.20;1.00;;;;;;5031803;28;20017;-66
2022/12/17 14:57:51;;;;;;;43.03;27.77;;;9.20;1.00;;;;;;5031727;28;20049;-66
2022/12/17 15:00:18;;;;;;;41.63;25.77;;;9.20;1.00;;;;;;5031794;28;20040;-66
2022/12/17 15:02:53;;;;;;;46.30;26.97;;;9.20;1.00;;;;;;5047477;28;20022;-59
2022/12/17 15:05:18;;;;;;;39.07;23.77;;;9.00;1.00;;;;;;5031993;28;20108;-62
2022/12/17 15:07:44;;;;;;;35.47;22.30;;;8.90;1.00;;;;;;5015313;28;20117;-63
2022/12/17 15:10:12;;;;;;;34.87;22.87;;;8.80;1.00;;;;;;5011974;28;20499;-72
2022/12/17 15:12:40;;;;;;;33.53;22.50;;;8.90;1.00;;;;;;5029371;28;20071;-71
2022/12/17 15:15:07;;;;;;;31.60;21.83;;;9.10;1.00;;;;;;5030850;28;20029;-73
2022/12/17 15:17:33;;;;;;;29.80;21.20;;;9.10;1.00;;;;;;5047190;28;20024;-72
2022/12/17 15:19:58;;;;;;;27.90;19.97;;;9.00;1.00;;;;;;5031690;28;20136;-72
2022/12/17 15:22:24;;;;;;;35.00;22.30;;;9.00;1.00;;;;;;5020519;28;20518;-71
2022/12/17 15:24:50;;;;;;;34.07;22.47;;;9.00;1.00;;;;;;5012040;28;20080;-72
2022/12/17 15:27:16;;;;;;;31.63;22.53;;;8.70;1.00;;;;;;5026843;28;20471;-72
2022/12/17 15:29:43;;;;;;;30.65;21.90;;;8.90;1.00;;;;;;5030218;28;20041;-72
2022/12/17 15:32:20;;;;;;;35.67;22.70;;;8.80;1.00;;;;;;5031800;28;20028;-71
2022/12/17 15:34:51;;;;;;;36.50;24.03;;;9.00;1.00;;;;;;5031587;28;20044;-73
2022/12/17 15:37:17;;;;;;;34.53;23.03;;;8.90;1.00;;;;;;5018679;28;20160;-72
2022/12/17 15:39:43;;;;;;;45.47;25.07;;;8.80;1.00;;;;;;5015470;28;20026;-71
2022/12/17 15:44:57;;;;;;;39.80;23.50;;;8.50;1.00;;;;;;5015542;28;20099;-72
2022/12/17 15:47:22;;;;;;;36.17;22.50;;;8.60;1.00;;;;;;5015143;28;20093;-72
2022/12/17 15:49:48;;;;;;;40.53;24.80;;;8.60;1.00;;;;;;5015278;28;20037;-72
2022/12/17 15:52:14;;;;;;;37.07;25.50;;;8.60;1.00;;;;;;5025462;28;20040;-71
2022/12/17 15:54:43;;;;;;;38.23;24.93;;;8.40;1.00;;;;;;5033305;28;20021;-71
2022/12/17 15:57:09;;;;;;;38.90;24.97;;;8.50;1.00;;;;;;5028888;28;20025;-71
2022/12/17 15:59:35;;;;;;;33.13;22.63;;;8.60;1.00;;;;;;5035092;28;20087;-72
2022/12/17 16:02:00;;;;;;;30.97;21.97;;;8.60;1.00;;;;;;5035073;28;20022;-72
2022/12/17 16:04:26;;;;;;;31.27;21.77;;;8.70;1.00;;;;;;5034808;28;20387;-72
2022/12/17 16:06:52;;;;;;;30.10;20.30;;;8.70;1.00;;;;;;5032791;28;20049;-71
2022/12/17 16:09:17;;;;;;;28.83;20.43;;;8.60;1.00;;;;;;5034599;28;20160;-71
2022/12/17 16:11:43;;;;;;;28.93;20.47;;;8.70;1.00;;;;;;5031858;28;20447;-71
2022/12/17 16:14:09;;;;;;;31.13;20.07;;;8.50;1.00;;;;;;5034543;28;20470;-71
2022/12/17 16:16:34;;;;;;;27.87;19.43;;;8.40;1.00;;;;;;5034819;28;20074;-72
2022/12/17 16:19:00;;;;;;;24.07;18.07;;;8.40;1.00;;;;;;5034939;28;20032;-72
2022/12/17 16:21:26;;;;;;;31.37;18.10;;;8.50;1.00;;;;;;5032427;28;20026;-72
2022/12/17 16:23:52;;;;;;;28.77;19.63;;;8.60;1.00;;;;;;5034314;28;20036;-72
2022/12/17 16:26:18;;;;;;;25.95;18.85;;;8.30;1.00;;;;;;5032159;28;20337;-72
2022/12/17 16:28:44;;;;;;;28.13;18.73;;;8.40;1.00;;;;;;5032943;28;20052;-71
2022/12/17 16:31:12;;;;;;;29.37;20.33;;;8.50;1.00;;;;;;5021062;28;20383;-72
2022/12/17 16:33:40;;;;;;;27.00;19.93;;;8.60;1.00;;;;;;5027832;28;20107;-72
2022/12/17 16:36:07;;;;;;;29.17;18.60;;;8.60;1.00;;;;;;5034295;28;20022;-71
2022/12/17 16:38:34;;;;;;;32.40;21.83;;;8.50;1.00;;;;;;5027699;28;20030;-72
2022/12/17 16:41:01;;;;;;;33.03;22.90;;;8.50;1.00;;;;;;5014864;28;20033;-72
2022/12/17 16:43:31;;;;;;;30.53;20.50;;;8.50;1.00;;;;;;5014753;28;20030;-72
2022/12/17 16:45:56;;;;;;;27.20;19.83;;;8.60;1.00;;;;;;5014732;28;20072;-73
2022/12/17 16:48:22;;;;;;;27.37;18.87;;;8.60;1.00;;;;;;5015498;28;20037;-73
2022/12/17 16:50:51;;;;;;;30.17;20.07;;;8.60;1.00;;;;;;5033216;28;20060;-73
2022/12/17 16:53:17;;;;;;;30.27;20.85;;;8.70;1.00;;;;;;5034293;28;20367;-72
2022/12/17 16:55:48;;;;;;;28.83;19.17;;;8.70;1.00;;;;;;5031604;28;20025;-74
2022/12/17 16:58:15;;;;;;;26.73;20.53;;;8.80;1.00;;;;;;5035717;28;20045;-73
2022/12/17 17:00:40;;;;;;;27.13;19.00;;;8.70;1.00;;;;;;5030124;28;20478;-72
2022/12/17 17:03:07;;;;;;;32.20;20.67;;;8.70;1.00;;;;;;5033315;28;20025;-73
2022/12/17 17:05:38;;;;;;;30.03;22.30;;;8.60;1.00;;;;;;5033338;28;20034;-73
2022/12/17 17:08:05;;;;;;;26.07;19.73;;;8.70;1.00;;;;;;5032979;28;20033;-73
2022/12/17 17:10:34;;;;;;;33.03;20.13;;;8.80;1.00;;;;;;5025188;28;20051;-72
2022/12/17 17:13:00;;;;;;;32.07;21.00;;;8.80;1.00;;;;;;5032613;28;20057;-72
2022/12/17 17:15:25;;;;;;;34.07;21.97;;;8.70;1.00;;;;;;5034789;28;20102;-73
2022/12/17 17:17:52;;;;;;;34.90;22.03;;;8.80;1.00;;;;;;5035825;28;20033;-72
2022/12/17 17:20:17;;;;;;;32.13;22.93;;;8.60;1.00;;;;;;5030074;28;20483;-72
2022/12/17 17:22:43;;;;;;;40.57;23.33;;;8.80;1.00;;;;;;5025908;28;20140;-72
2022/12/17 17:25:08;;;;;;;31.50;20.90;;;8.80;1.00;;;;;;5024680;28;20064;-72
2022/12/17 17:27:34;;;;;;;41.33;23.97;;;8.70;1.00;;;;;;5029596;28;20117;-72
2022/12/17 17:30:00;;;;;;;34.13;24.27;;;8.80;1.00;;;;;;5031147;28;20029;-73
2022/12/17 17:32:26;;;;;;;35.10;24.15;;;9.00;1.00;;;;;;5032253;28;20028;-72
2022/12/17 17:34:52;;;;;;;44.57;23.83;;;9.00;1.00;;;;;;5021757;28;20033;-72
2022/12/17 17:37:27;;;;;;;46.95;24.55;;;8.80;1.00;;;;;;5027017;28;20110;-72
2022/12/17 17:39:52;;;;;;;;;;;8.70;1.00;;;;;;5032764;28;20026;-72
2022/12/17 17:42:18;;;;;;;35.43;23.33;;;8.80;1.00;;;;;;5033174;28;20324;-72
2022/12/17 17:44:43;;;;;;;33.03;23.00;;;9.00;1.00;;;;;;5032543;28;20033;-72
2022/12/17 17:47:09;;;;;;;38.70;25.50;;;9.00;1.00;;;;;;5027326;28;20040;-72
2022/12/17 17:49:35;;;;;;;42.13;22.87;;;8.90;1.00;;;;;;5028395;28;20447;-72
2022/12/17 17:52:01;;;;;;;35.30;23.37;;;9.10;1.00;;;;;;5034823;28;20056;-71
2022/12/17 17:54:27;;;;;;;32.97;22.15;;;9.00;1.00;;;;;;5027655;28;20088;-71
2022/12/17 17:56:52;;;;;;;33.40;23.17;;;9.00;1.00;;;;;;5018067;28;20071;-72
2022/12/17 17:59:18;;;;;;;33.33;23.30;;;9.10;1.00;;;;;;5032557;28;20033;-71
2022/12/17 18:01:46;;;;;;;39.23;24.10;;;9.10;1.00;;;;;;5026593;28;20030;-71
2022/12/17 18:04:14;;;;;;;36.40;24.10;;;9.10;1.00;;;;;;5012513;28;20030;-72
2022/12/17 18:06:43;;;;;;;35.10;22.95;;;9.10;1.00;;;;;;5011686;28;20029;-71
2022/12/17 18:09:09;;;;;;;35.17;23.98;;;9.10;1.00;;;;;;5011367;28;20030;-71
2022/12/17 18:11:37;;;;;;;30.65;21.70;;;8.80;1.00;;;;;;5012437;28;20551;-71
2022/12/17 18:14:04;;;;;;;42.42;25.73;;;9.00;1.00;;;;;;5030871;28;20029;-71
2022/12/17 18:16:44;;;;;;;34.65;22.67;;;9.10;1.00;;;;;;5032408;28;20545;-71
2022/12/17 18:19:13;;;;;;;36.67;22.98;;;9.00;1.00;;;;;;5031114;28;20025;-71
2022/12/17 18:21:40;;;;;;;37.75;23.35;;;9.10;1.00;;;;;;5032888;28;20090;-71
2022/12/17 18:24:25;;;;;;;31.73;22.15;;;9.10;1.00;;;;;;5032377;28;20029;-71
2022/12/17 18:26:53;;;;;;;32.22;22.92;;;9.10;1.00;;;;;;5031769;28;20043;-71
2022/12/17 18:29:23;;;;;;;37.92;25.40;;;9.20;1.00;;;;;;5047355;28;20167;-73
2022/12/17 18:32:32;;;;;;;33.90;22.17;;;9.10;1.00;;;;;;5032598;28;20106;-72
2022/12/17 18:34:57;;;;;;;35.97;24.47;;;9.20;1.00;;;;;;5028303;28;20418;-72
2022/12/17 18:37:23;;;;;;;39.70;23.77;;;9.30;1.00;;;;;;5031971;28;20034;-72
2022/12/17 18:39:49;;;;;;;35.33;24.15;;;9.20;1.00;;;;;;5032057;28;20025;-72
2022/12/17 18:44:58;;;;;;;30.40;21.83;;;9.30;1.00;;;;;;5031806;28;20541;-72
2022/12/17 18:47:24;;;;;;;31.60;21.08;;;9.30;1.00;;;;;;5032041;28;20021;-72
2022/12/17 18:49:50;;;;;;;29.73;22.05;;;9.40;1.00;;;;;;5030197;28;20488;-72
2022/12/17 18:52:15;;;;;;;36.17;24.10;;;9.30;1.00;;;;;;5011240;28;20030;-72
2022/12/17 18:54:41;;;;;;;37.70;25.33;;;9.30;1.00;;;;;;5012466;28;20030;-72
2022/12/17 18:57:07;;;;;;;33.65;23.52;;;9.40;1.00;;;;;;5012229;28;20415;-72
2022/12/17 18:59:33;;;;;;;30.27;23.10;;;9.20;1.00;;;;;;5010900;28;20032;-72
2022/12/17 19:01:59;;;;;;;38.70;24.65;;;9.40;1.00;;;;;;5012201;28;20141;-72
2022/12/17 19:04:26;;;;;;;35.17;24.50;;;9.40;1.00;;;;;;5012243;28;20160;-72
2022/12/17 19:06:52;;;;;;;36.38;23.58;;;9.30;1.00;;;;;;5010840;28;20038;-71
2022/12/17 19:09:27;;;;;;;37.80;25.95;;;9.40;1.00;;;;;;5012323;28;20085;-71
2022/12/17 19:11:54;;;;;;;36.83;24.25;;;9.50;1.00;;;;;;5012298;28;20030;-71
2022/12/17 19:14:25;;;;;;;36.38;25.02;;;9.50;1.00;;;;;;5027076;28;20036;-72
2022/12/17 19:16:53;;;;;;;36.60;24.50;;;9.50;1.00;;;;;;5035847;28;20025;-72
2022/12/17 19:19:20;;;;;;;38.35;24.92;;;9.50;1.00;;;;;;5035717;28;20029;-71
2022/12/17 19:21:46;;;;;;;34.75;25.05;;;9.50;1.00;;;;;;5034166;28;20030;-71
2022/12/17 19:24:13;;;;;;;36.55;24.00;;;9.60;1.00;;;;;;5033607;28;20053;-71
2022/12/17 19:26:39;;;;;;;36.65;24.95;;;9.60;1.00;;;;;;5035782;28;20038;-71
2022/12/17 19:29:07;;;;;;;37.92;24.58;;;9.60;1.00;;;;;;5035618;28;20033;-71
2022/12/17 19:31:36;;;;;;;41.55;26.13;;;9.70;1.00;;;;;;5050596;28;20033;-71
2022/12/17 19:34:04;;;;;;;34.65;23.77;;;9.60;1.00;;;;;;5028394;28;20046;-70
2022/12/17 19:36:31;;;;;;;31.17;22.13;;;9.70;1.00;;;;;;5030643;28;20037;-70
2022/12/17 19:38:59;;;;;;;35.45;24.65;;;9.70;1.00;;;;;;5023822;28;20109;-71
2022/12/17 19:41:27;;;;;;;34.22;22.80;;;9.60;1.00;;;;;;5035181;28;20028;-71
2022/12/17 19:43:55;;;;;;;32.88;23.50;;;9.70;1.00;;;;;;5035249;28;20040;-71
2022/12/17 19:46:22;;;;;;;34.95;23.52;;;9.70;1.00;;;;;;5035697;28;20033;-71
2022/12/17 19:48:49;;;;;;;33.85;24.20;;;9.70;1.00;;;;;;5029318;28;20117;-71
2022/12/17 19:51:17;;;;;;;34.28;23.67;;;9.70;1.00;;;;;;5032511;28;20025;-71
2022/12/17 19:53:44;;;;;;;32.97;23.67;;;9.70;1.00;;;;;;5035031;28;20037;-71
2022/12/17 19:56:26;;;;;;;33.28;22.83;;;9.70;1.00;;;;;;5035416;28;20030;-71
2022/12/17 19:58:54;;;;;;;34.03;24.30;;;9.70;1.00;;;;;;5035199;28;20110;-71
2022/12/17 20:01:23;;;;;;;35.70;23.35;;;9.70;1.00;;;;;;5028789;28;20026;-71
2022/12/17 20:03:49;;;;;;;38.38;25.33;;;9.70;1.00;;;;;;5015446;28;20053;-71
2022/12/17 20:06:17;;;;;;;38.70;27.40;;;9.80;1.00;;;;;;5015149;28;20474;-71
2022/12/17 20:08:43;;;;;;;36.33;25.15;;;9.50;1.00;;;;;;5015335;28;20034;-71
2022/12/17 20:13:58;;;;;;;38.85;26.25;;;9.70;1.00;;;;;;5015437;28;20557;-71
2022/12/17 20:16:24;;;;;;;35.47;24.10;;;9.70;1.00;;;;;;5014862;28;20018;-70
2022/12/17 20:18:50;;;;;;;35.67;25.42;;;9.70;1.00;;;;;;5030293;28;20022;-71
2022/12/17 20:21:16;;;;;;;39.90;24.58;;;9.80;1.00;;;;;;5015167;28;20022;-71
2022/12/17 20:23:54;;;;;;;38.08;25.55;;;9.80;1.00;;;;;;5014658;28;20044;-71
2022/12/17 20:26:23;;;;;;;34.70;25.48;;;9.90;1.00;;;;;;5014594;28;20072;-70
2022/12/17 20:28:48;;;;;;;35.83;25.00;;;10.00;1.00;;;;;;5014908;28;20034;-71
2022/12/17 20:31:14;;;;;;;37.40;24.15;;;9.80;1.00;;;;;;5014917;28;20040;-71
2022/12/17 20:33:40;;;;;;;34.53;24.35;;;9.90;1.00;;;;;;5014672;28;20026;-70
2022/12/17 20:36:09;;;;;;;36.80;24.42;;;10.00;1.00;;;;;;5014591;28;20056;-71
2022/12/17 20:38:35;;;;;;;36.03;24.58;;;10.00;1.00;;;;;;5014782;28;20026;-71
2022/12/17 20:41:01;;;;;;;34.75;25.98;;;9.90;1.00;;;;;;5013333;28;20026;-70
2022/12/17 20:43:26;;;;;;;31.13;23.25;;;10.00;1.00;;;;;;5014866;28;20040;-70
2022/12/17 20:45:54;;;;;;;31.05;24.02;;;10.10;1.00;;;;;;5022137;28;20037;-70
2022/12/17 20:48:21;;;;;;;37.60;26.55;;;10.00;1.00;;;;;;5033964;28;20037;-70
2022/12/17 20:50:47;;;;;;;37.30;26.15;;;10.10;1.00;;;;;;5034421;28;20017;-70
2022/12/17 20:53:13;;;;;;;32.47;25.08;;;10.10;1.00;;;;;;5033998;28;20061;-70
2022/12/17 20:55:38;;;;;;;33.13;24.42;;;10.10;1.00;;;;;;5032603;28;20061;-70
2022/12/17 20:58:04;;;;;;;31.90;24.83;;;10.10;1.00;;;;;;5029433;28;20032;-71
2022/12/17 21:00:30;;;;;;;29.30;22.42;;;10.10;1.00;;;;;;5014309;28;20026;-71
2022/12/17 21:02:56;;;;;;;28.05;21.48;;;10.10;1.00;;;;;;5014266;28;20306;-71
2022/12/17 21:05:22;;;;;;;29.65;21.10;;;10.00;1.00;;;;;;5014447;28;20069;-71
2022/12/17 21:07:49;;;;;;;28.67;22.05;;;10.10;1.00;;;;;;5014025;28;20053;-71
2022/12/17 21:10:14;;;;;;;33.80;23.23;;;10.00;1.00;;;;;;5012766;28;20069;-71
2022/12/17 21:15:25;;;;;;;24.95;20.10;;;10.20;1.00;;;;;;5014124;28;20040;-71
2022/12/17 21:17:50;;;;;;;28.85;22.23;;;10.20;1.00;;;;;;5013684;28;20026;-69
2022/12/17 21:20:16;;;;;;;31.30;22.88;;;10.30;1.00;;;;;;5044264;28;20025;-70
2022/12/17 21:22:42;;;;;;;27.50;22.27;;;10.30;1.00;;;;;;5033592;28;20033;-70
2022/12/17 21:25:08;;;;;;;26.42;21.98;;;10.30;1.00;;;;;;5033665;28;20455;-71
2022/12/17 21:27:34;;;;;;;27.73;21.73;;;10.30;1.00;;;;;;5031930;28;20029;-71
2022/12/17 21:30:00;;;;;;;23.65;20.27;;;10.30;1.00;;;;;;5032432;28;20487;-70
2022/12/17 21:32:26;;;;;;;24.13;19.50;;;10.40;1.00;;;;;;5033118;28;20026;-71
2022/12/17 21:34:52;;;;;;;29.90;21.95;;;10.20;1.00;;;;;;5047790;28;20025;-71
2022/12/17 21:37:17;;;;;;;27.20;21.40;;;10.30;1.00;;;;;;5032280;28;20025;-71
2022/12/17 21:39:43;;;;;;;29.67;21.02;;;10.40;1.00;;;;;;5032922;28;20116;-71
2022/12/17 21:44:53;;;;;;;26.77;20.52;;;10.40;1.00;;;;;;5022108;28;20443;-70
2022/12/17 21:47:19;;;;;;;33.00;26.15;;;10.40;1.00;;;;;;5013621;28;20037;-70
2022/12/17 21:49:45;;;;;;;25.10;20.25;;;10.40;1.00;;;;;;5013461;28;20392;-70
2022/12/17 21:52:10;;;;;;;26.65;19.60;;;10.40;1.00;;;;;;5013172;28;20485;-70
2022/12/17 21:54:36;;;;;;;26.17;20.58;;;10.40;1.00;;;;;;5013401;28;20084;-70
2022/12/17 21:57:02;;;;;;;24.65;19.67;;;10.50;1.00;;;;;;5013295;28;20057;-70
2022/12/17 21:59:29;;;;;;;21.92;18.60;;;10.40;1.00;;;;;;5013269;28;20026;-70
2022/12/17 22:01:55;;;;;;;24.23;18.73;;;10.30;1.00;;;;;;5028629;28;20025;-71
2022/12/17 22:04:22;;;;;;;23.65;19.33;;;10.40;1.00;;;;;;5013306;28;20049;-70
2022/12/17 22:06:47;;;;;;;22.88;19.02;;;10.30;1.00;;;;;;5013274;28;20053;-71
2022/12/17 22:09:13;;;;;;;38.92;25.30;;;10.30;1.00;;;;;;5013444;28;20046;-71
2022/12/17 22:11:38;;;;;;;23.67;18.80;;;10.30;1.00;;;;;;5015981;28;20085;-70
2022/12/17 22:14:11;;;;;;;26.35;19.38;;;10.30;1.00;;;;;;5013124;28;20025;-71
2022/12/17 22:16:41;;;;;;;21.95;17.98;;;10.30;1.00;;;;;;5013504;28;20038;-71
2022/12/17 22:19:09;;;;;;;24.60;19.73;;;10.30;1.00;;;;;;5011986;28;20038;-71
2022/12/17 22:21:46;;;;;;;25.98;20.10;;;10.30;1.00;;;;;;5013219;28;20156;-71
2022/12/17 22:24:20;;;;;;;23.67;19.65;;;10.30;1.00;;;;;;5012979;28;20038;-70
2022/12/17 22:26:46;;;;;;;22.45;16.85;;;10.30;1.00;;;;;;5022579;28;20029;-71
2022/12/17 22:32:58;;;;;;;23.88;19.10;;;10.30;1.00;;;;;;5033220;28;20128;-71
2022/12/17 22:34:44;;;;;;;21.85;17.92;;;10.40;1.00;;;;;;5028045;28;20087;-71
2022/12/17 22:37:10;;;;;;;23.92;18.42;;;10.40;1.00;;;;;;5011363;28;20169;-71
2022/12/17 22:39:35;;;;;;;22.92;18.00;;;10.40;1.00;;;;;;5012871;28;20064;-70
2022/12/17 22:44:45;;;;;;;21.45;17.85;;;10.50;1.00;;;;;;5012563;28;20167;-70
2022/12/17 22:47:11;;;;;;;21.30;17.08;;;10.40;1.00;;;;;;5012487;28;20105;-70
2022/12/17 22:49:36;;;;;;;20.25;16.58;;;10.40;1.00;;;;;;5016748;28;20143;-70
2022/12/17 22:52:02;;;;;;;25.02;18.27;;;10.50;1.00;;;;;;5016530;28;20034;-70
2022/12/17 22:54:28;;;;;;;24.80;17.63;;;10.50;1.00;;;;;;5016405;28;20109;-70
2022/12/17 22:56:53;;;;;;;22.75;17.33;;;10.50;1.00;;;;;;5031461;28;20030;-71
2022/12/17 22:59:21;;;;;;;24.45;18.08;;;10.50;1.00;;;;;;5036575;28;20463;-72
2022/12/17 23:01:47;;;;;;;23.92;18.25;;;10.60;1.00;;;;;;5036609;28;20033;-71
2022/12/17 23:04:14;;;;;;;20.35;17.23;;;10.60;1.00;;;;;;5036051;28;20025;-71
2022/12/17 23:06:41;;;;;;;21.15;17.42;;;10.60;1.00;;;;;;5025047;28;20026;-71
2022/12/17 23:09:07;;;;;;;20.45;17.02;;;10.60;1.00;;;;;;5016136;28;20041;-71
2022/12/17 23:11:33;;;;;;;19.92;17.30;;;10.50;1.00;;;;;;5016061;28;20107;-72
2022/12/17 23:14:02;;;;;;;22.27;18.35;;;10.60;1.00;;;;;;5016463;28;20060;-71
2022/12/17 23:16:27;;;;;;;19.38;15.85;;;10.60;1.00;;;;;;5018886;28;20030;-70
2022/12/17 23:18:54;;;;;;;20.40;17.10;;;10.60;1.00;;;;;;5036125;28;20386;-72
2022/12/17 23:21:24;;;;;;;18.20;16.05;;;10.70;1.00;;;;;;5036259;28;20104;-72
2022/12/17 23:23:54;;;;;;;21.08;16.50;;;10.60;1.00;;;;;;5035961;28;20017;-72
2022/12/17 23:26:22;;;;;;;23.42;18.80;;;10.70;1.00;;;;;;5036289;28;20064;-72
2022/12/17 23:28:53;;;;;;;18.88;16.35;;;10.70;1.00;;;;;;5036254;28;20077;-72
2022/12/17 23:31:20;;;;;;;18.58;16.55;;;10.70;1.00;;;;;;5031354;28;20109;-72
2022/12/17 23:33:46;;;;;;;20.27;16.40;;;10.70;1.00;;;;;;5015955;28;20476;-71
2022/12/17 23:36:18;;;;;;;21.55;16.48;;;10.70;1.00;;;;;;5030754;28;20128;-72
2022/12/17 23:38:45;;;;;;;20.10;16.30;;;10.70;1.00;;;;;;5015572;28;20022;-71
2022/12/17 23:41:13;;;;;;;18.40;16.35;;;10.70;1.00;;;;;;5014245;28;20438;-71
2022/12/17 23:43:39;;;;;;;18.25;15.75;;;10.70;1.00;;;;;;5015452;28;20026;-71
2022/12/17 23:46:05;;;;;;;21.70;17.38;;;10.70;1.00;;;;;;5020289;28;20040;-71
2022/12/17 23:48:33;;;;;;;20.05;17.08;;;10.70;1.00;;;;;;5035608;28;20037;-71
2022/12/17 23:51:00;;;;;;;22.08;16.70;;;10.70;1.00;;;;;;5035698;28;20038;-71
2022/12/17 23:53:27;;;;;;;21.58;17.00;;;10.60;1.00;;;;;;5035339;28;20062;-71
2022/12/17 23:55:53;;;;;;;22.65;17.27;;;10.60;1.00;;;;;;5034844;28;20033;-71
2022/12/17 23:58:19;;;;;;;21.52;17.58;;;10.60;1.00;;;;;;5031334;28;20499;-71
